sensor_id;sensor_type;location;lat;lon;timestamp;temperature;humidity
7738;DHT22;29398;45.328;5.558;2022-07-05T00:00:46;22.10;90.50
7738;DHT22;29398;45.328;5.558;2022-07-05T00:01:48;22.10;90.90
7738;DHT22;29398;45.328;5.558;2022-07-05T00:02:49;22.10;90.80
7738;DHT22;29398;45.328;5.558;2022-07-05T00:03:53;22.00;90.90
7738;DHT22;29398;45.328;5.558;2022-07-05T00:04:54;22.10;91.00
7738;DHT22;29398;45.328;5.558;2022-07-05T00:05:56;22.10;90.90
7738;DHT22;29398;45.328;5.558;2022-07-05T00:06:57;22.10;91.00
7738;DHT22;29398;45.328;5.558;2022-07-05T00:08:16;22.10;90.90
7738;DHT22;29398;45.328;5.558;2022-07-05T00:09:19;22.10;91.00
7738;DHT22;29398;45.328;5.558;2022-07-05T00:10:20;22.10;91.00
7738;DHT22;29398;45.328;5.558;2022-07-05T00:11:22;22.10;91.10
7738;DHT22;29398;45.328;5.558;2022-07-05T00:12:25;22.00;91.10
7738;DHT22;29398;45.328;5.558;2022-07-05T00:13:27;22.00;91.20
7738;DHT22;29398;45.328;5.558;2022-07-05T00:14:29;21.90;91.30
7738;DHT22;29398;45.328;5.558;2022-07-05T00:15:30;21.80;91.50
7738;DHT22;29398;45.328;5.558;2022-07-05T00:16:32;21.80;91.50
7738;DHT22;29398;45.328;5.558;2022-07-05T00:17:33;21.80;91.50
7738;DHT22;29398;45.328;5.558;2022-07-05T00:18:35;21.80;91.50
7738;DHT22;29398;45.328;5.558;2022-07-05T00:19:38;21.80;91.50
7738;DHT22;29398;45.328;5.558;2022-07-05T00:20:40;21.80;92.00
7738;DHT22;29398;45.328;5.558;2022-07-05T00:21:41;21.80;91.60
7738;DHT22;29398;45.328;5.558;2022-07-05T00:22:43;21.80;91.70
7738;DHT22;29398;45.328;5.558;2022-07-05T00:23:44;21.90;91.80
7738;DHT22;29398;45.328;5.558;2022-07-05T00:24:46;21.80;91.70
7738;DHT22;29398;45.328;5.558;2022-07-05T00:25:48;21.80;91.70
7738;DHT22;29398;45.328;5.558;2022-07-05T00:26:50;21.80;91.70
7738;DHT22;29398;45.328;5.558;2022-07-05T00:27:51;21.80;91.70
7738;DHT22;29398;45.328;5.558;2022-07-05T00:28:54;21.80;91.80
7738;DHT22;29398;45.328;5.558;2022-07-05T00:29:56;21.80;92.00
7738;DHT22;29398;45.328;5.558;2022-07-05T00:30:57;21.80;92.00
7738;DHT22;29398;45.328;5.558;2022-07-05T00:31:59;21.80;91.90
7738;DHT22;29398;45.328;5.558;2022-07-05T00:33:00;21.80;92.00
7738;DHT22;29398;45.328;5.558;2022-07-05T00:34:02;21.70;92.00
7738;DHT22;29398;45.328;5.558;2022-07-05T00:35:06;21.70;92.10
7738;DHT22;29398;45.328;5.558;2022-07-05T00:36:08;21.70;92.10
7738;DHT22;29398;45.328;5.558;2022-07-05T00:37:10;21.70;92.10
7738;DHT22;29398;45.328;5.558;2022-07-05T00:38:12;21.70;92.00
7738;DHT22;29398;45.328;5.558;2022-07-05T00:39:14;21.70;92.10
7738;DHT22;29398;45.328;5.558;2022-07-05T00:40:15;21.70;92.20
7738;DHT22;29398;45.328;5.558;2022-07-05T00:41:17;21.70;92.30
7738;DHT22;29398;45.328;5.558;2022-07-05T00:42:18;21.70;92.20
7738;DHT22;29398;45.328;5.558;2022-07-05T00:43:20;21.60;92.30
7738;DHT22;29398;45.328;5.558;2022-07-05T00:44:29;21.60;92.40
7738;DHT22;29398;45.328;5.558;2022-07-05T00:45:32;21.60;92.60
7738;DHT22;29398;45.328;5.558;2022-07-05T00:46:35;21.60;92.50
7738;DHT22;29398;45.328;5.558;2022-07-05T00:47:36;21.60;92.50
7738;DHT22;29398;45.328;5.558;2022-07-05T00:48:38;21.70;92.90
7738;DHT22;29398;45.328;5.558;2022-07-05T00:49:41;21.60;92.60
7738;DHT22;29398;45.328;5.558;2022-07-05T00:50:44;21.60;92.60
7738;DHT22;29398;45.328;5.558;2022-07-05T00:51:45;21.60;92.90
7738;DHT22;29398;45.328;5.558;2022-07-05T00:52:47;21.60;92.90
7738;DHT22;29398;45.328;5.558;2022-07-05T00:53:48;21.50;93.30
7738;DHT22;29398;45.328;5.558;2022-07-05T00:54:51;21.50;92.90
7738;DHT22;29398;45.328;5.558;2022-07-05T00:55:52;21.50;92.90
7738;DHT22;29398;45.328;5.558;2022-07-05T00:56:54;21.50;93.00
7738;DHT22;29398;45.328;5.558;2022-07-05T00:57:56;21.50;93.10
7738;DHT22;29398;45.328;5.558;2022-07-05T00:58:58;21.50;93.10
7738;DHT22;29398;45.328;5.558;2022-07-05T00:59:59;21.50;93.10
7738;DHT22;29398;45.328;5.558;2022-07-05T01:01:03;21.40;93.10
7738;DHT22;29398;45.328;5.558;2022-07-05T01:02:05;21.40;93.10
7738;DHT22;29398;45.328;5.558;2022-07-05T01:03:07;21.40;93.10
7738;DHT22;29398;45.328;5.558;2022-07-05T01:04:10;21.40;93.40
7738;DHT22;29398;45.328;5.558;2022-07-05T01:05:12;21.40;93.70
7738;DHT22;29398;45.328;5.558;2022-07-05T01:06:15;21.40;93.50
7738;DHT22;29398;45.328;5.558;2022-07-05T01:07:20;21.30;93.60
7738;DHT22;29398;45.328;5.558;2022-07-05T01:08:23;21.30;93.60
7738;DHT22;29398;45.328;5.558;2022-07-05T01:09:25;21.20;93.80
7738;DHT22;29398;45.328;5.558;2022-07-05T01:10:27;21.20;93.90
7738;DHT22;29398;45.328;5.558;2022-07-05T01:11:28;21.20;93.90
7738;DHT22;29398;45.328;5.558;2022-07-05T01:12:31;21.20;94.30
7738;DHT22;29398;45.328;5.558;2022-07-05T01:13:34;21.20;94.20
7738;DHT22;29398;45.328;5.558;2022-07-05T01:14:36;21.20;94.20
7738;DHT22;29398;45.328;5.558;2022-07-05T01:15:38;21.10;94.00
7738;DHT22;29398;45.328;5.558;2022-07-05T01:16:40;21.10;94.20
7738;DHT22;29398;45.328;5.558;2022-07-05T01:17:42;21.10;94.10
7738;DHT22;29398;45.328;5.558;2022-07-05T01:18:43;21.10;94.10
7738;DHT22;29398;45.328;5.558;2022-07-05T01:19:46;21.10;94.20
7738;DHT22;29398;45.328;5.558;2022-07-05T01:20:48;21.10;94.10
7738;DHT22;29398;45.328;5.558;2022-07-05T01:21:51;21.10;94.20
7738;DHT22;29398;45.328;5.558;2022-07-05T01:22:55;21.00;94.20
7738;DHT22;29398;45.328;5.558;2022-07-05T01:23:57;21.00;94.20
7738;DHT22;29398;45.328;5.558;2022-07-05T01:24:59;21.10;94.30
7738;DHT22;29398;45.328;5.558;2022-07-05T01:26:01;21.00;94.20
7738;DHT22;29398;45.328;5.558;2022-07-05T01:27:03;21.00;94.50
7738;DHT22;29398;45.328;5.558;2022-07-05T01:28:05;21.00;94.30
7738;DHT22;29398;45.328;5.558;2022-07-05T01:29:08;21.10;94.60
7738;DHT22;29398;45.328;5.558;2022-07-05T01:30:10;21.10;94.30
7738;DHT22;29398;45.328;5.558;2022-07-05T01:31:12;21.10;94.20
7738;DHT22;29398;45.328;5.558;2022-07-05T01:32:13;21.10;94.50
7738;DHT22;29398;45.328;5.558;2022-07-05T01:33:16;21.10;94.20
7738;DHT22;29398;45.328;5.558;2022-07-05T01:34:17;21.00;94.20
7738;DHT22;29398;45.328;5.558;2022-07-05T01:35:19;21.00;94.20
7738;DHT22;29398;45.328;5.558;2022-07-05T01:36:21;21.00;94.30
7738;DHT22;29398;45.328;5.558;2022-07-05T01:37:23;20.90;94.20
7738;DHT22;29398;45.328;5.558;2022-07-05T01:38:26;20.80;94.30
7738;DHT22;29398;45.328;5.558;2022-07-05T01:39:28;20.80;94.30
7738;DHT22;29398;45.328;5.558;2022-07-05T01:40:29;20.80;94.40
7738;DHT22;29398;45.328;5.558;2022-07-05T01:41:32;20.90;94.40
7738;DHT22;29398;45.328;5.558;2022-07-05T01:42:33;20.80;94.40
7738;DHT22;29398;45.328;5.558;2022-07-05T01:43:35;20.90;94.60
7738;DHT22;29398;45.328;5.558;2022-07-05T01:44:38;20.80;94.30
7738;DHT22;29398;45.328;5.558;2022-07-05T01:45:40;20.80;94.40
7738;DHT22;29398;45.328;5.558;2022-07-05T01:46:42;20.80;94.40
7738;DHT22;29398;45.328;5.558;2022-07-05T01:47:45;20.80;94.50
7738;DHT22;29398;45.328;5.558;2022-07-05T01:48:50;20.90;94.50
7738;DHT22;29398;45.328;5.558;2022-07-05T01:49:54;20.80;94.40
7738;DHT22;29398;45.328;5.558;2022-07-05T01:51:03;20.80;94.50
7738;DHT22;29398;45.328;5.558;2022-07-05T01:52:09;20.80;94.50
7738;DHT22;29398;45.328;5.558;2022-07-05T01:53:16;20.80;94.60
7738;DHT22;29398;45.328;5.558;2022-07-05T01:54:20;20.70;94.70
7738;DHT22;29398;45.328;5.558;2022-07-05T01:55:21;20.70;94.60
7738;DHT22;29398;45.328;5.558;2022-07-05T01:56:23;20.70;95.00
7738;DHT22;29398;45.328;5.558;2022-07-05T01:57:24;20.70;94.90
7738;DHT22;29398;45.328;5.558;2022-07-05T01:58:26;20.70;94.90
7738;DHT22;29398;45.328;5.558;2022-07-05T01:59:28;20.70;94.80
7738;DHT22;29398;45.328;5.558;2022-07-05T02:00:30;20.70;94.80
7738;DHT22;29398;45.328;5.558;2022-07-05T02:01:33;20.70;94.90
7738;DHT22;29398;45.328;5.558;2022-07-05T02:02:39;20.70;94.80
7738;DHT22;29398;45.328;5.558;2022-07-05T02:03:41;20.60;94.90
7738;DHT22;29398;45.328;5.558;2022-07-05T02:04:43;20.60;95.00
7738;DHT22;29398;45.328;5.558;2022-07-05T02:05:48;20.60;95.00
7738;DHT22;29398;45.328;5.558;2022-07-05T02:06:53;20.60;95.00
7738;DHT22;29398;45.328;5.558;2022-07-05T02:07:55;20.60;95.00
7738;DHT22;29398;45.328;5.558;2022-07-05T02:08:56;20.50;94.90
7738;DHT22;29398;45.328;5.558;2022-07-05T02:10:00;20.50;95.00
7738;DHT22;29398;45.328;5.558;2022-07-05T02:11:02;20.50;95.00
7738;DHT22;29398;45.328;5.558;2022-07-05T02:12:05;20.50;95.10
7738;DHT22;29398;45.328;5.558;2022-07-05T02:13:08;20.50;95.20
7738;DHT22;29398;45.328;5.558;2022-07-05T02:14:11;20.50;95.20
7738;DHT22;29398;45.328;5.558;2022-07-05T02:15:14;20.50;95.20
7738;DHT22;29398;45.328;5.558;2022-07-05T02:16:17;20.50;95.50
7738;DHT22;29398;45.328;5.558;2022-07-05T02:17:18;20.50;95.60
7738;DHT22;29398;45.328;5.558;2022-07-05T02:18:24;20.50;95.50
7738;DHT22;29398;45.328;5.558;2022-07-05T02:19:27;20.50;95.60
7738;DHT22;29398;45.328;5.558;2022-07-05T02:20:31;20.40;95.60
7738;DHT22;29398;45.328;5.558;2022-07-05T02:21:34;20.50;95.60
7738;DHT22;29398;45.328;5.558;2022-07-05T02:22:38;20.40;95.60
7738;DHT22;29398;45.328;5.558;2022-07-05T02:23:39;20.50;95.70
7738;DHT22;29398;45.328;5.558;2022-07-05T02:24:43;20.40;95.60
7738;DHT22;29398;45.328;5.558;2022-07-05T02:25:59;20.40;95.70
7738;DHT22;29398;45.328;5.558;2022-07-05T02:27:01;20.40;95.90
7738;DHT22;29398;45.328;5.558;2022-07-05T02:28:03;20.40;95.90
7738;DHT22;29398;45.328;5.558;2022-07-05T02:29:06;20.40;96.10
7738;DHT22;29398;45.328;5.558;2022-07-05T02:30:10;20.30;96.10
7738;DHT22;29398;45.328;5.558;2022-07-05T02:31:14;20.30;96.00
7738;DHT22;29398;45.328;5.558;2022-07-05T02:32:17;20.30;96.10
7738;DHT22;29398;45.328;5.558;2022-07-05T02:33:19;20.30;96.00
7738;DHT22;29398;45.328;5.558;2022-07-05T02:34:22;20.30;96.10
7738;DHT22;29398;45.328;5.558;2022-07-05T02:35:23;20.30;96.10
7738;DHT22;29398;45.328;5.558;2022-07-05T02:36:25;20.30;96.40
7738;DHT22;29398;45.328;5.558;2022-07-05T02:37:27;20.20;96.20
7738;DHT22;29398;45.328;5.558;2022-07-05T02:38:30;20.20;96.20
7738;DHT22;29398;45.328;5.558;2022-07-05T02:39:32;20.20;96.30
7738;DHT22;29398;45.328;5.558;2022-07-05T02:40:35;20.20;96.10
7738;DHT22;29398;45.328;5.558;2022-07-05T02:41:39;20.20;96.30
7738;DHT22;29398;45.328;5.558;2022-07-05T02:42:42;20.20;96.30
7738;DHT22;29398;45.328;5.558;2022-07-05T02:43:46;20.20;96.30
7738;DHT22;29398;45.328;5.558;2022-07-05T02:44:50;20.20;96.30
7738;DHT22;29398;45.328;5.558;2022-07-05T02:45:53;20.20;96.40
7738;DHT22;29398;45.328;5.558;2022-07-05T02:46:56;20.20;96.30
7738;DHT22;29398;45.328;5.558;2022-07-05T02:47:58;20.20;96.40
7738;DHT22;29398;45.328;5.558;2022-07-05T02:49:03;20.20;96.40
7738;DHT22;29398;45.328;5.558;2022-07-05T02:50:08;20.20;96.40
7738;DHT22;29398;45.328;5.558;2022-07-05T02:51:16;20.20;96.40
7738;DHT22;29398;45.328;5.558;2022-07-05T02:52:19;20.20;96.30
7738;DHT22;29398;45.328;5.558;2022-07-05T02:53:22;20.10;96.30
7738;DHT22;29398;45.328;5.558;2022-07-05T02:54:23;20.10;96.40
7738;DHT22;29398;45.328;5.558;2022-07-05T02:55:26;20.10;96.40
7738;DHT22;29398;45.328;5.558;2022-07-05T02:56:27;20.10;96.50
7738;DHT22;29398;45.328;5.558;2022-07-05T02:57:31;20.00;96.50
7738;DHT22;29398;45.328;5.558;2022-07-05T02:58:36;20.00;96.50
7738;DHT22;29398;45.328;5.558;2022-07-05T02:59:39;20.00;96.50
7738;DHT22;29398;45.328;5.558;2022-07-05T03:00:40;20.00;96.70
7738;DHT22;29398;45.328;5.558;2022-07-05T03:01:43;20.00;96.80
7738;DHT22;29398;45.328;5.558;2022-07-05T03:02:48;20.00;97.30
7738;DHT22;29398;45.328;5.558;2022-07-05T03:03:51;20.00;97.00
7738;DHT22;29398;45.328;5.558;2022-07-05T03:04:54;20.00;97.10
7738;DHT22;29398;45.328;5.558;2022-07-05T03:05:56;20.00;97.20
7738;DHT22;29398;45.328;5.558;2022-07-05T03:06:58;20.00;97.30
7738;DHT22;29398;45.328;5.558;2022-07-05T03:08:03;20.00;97.30
7738;DHT22;29398;45.328;5.558;2022-07-05T03:09:07;20.00;97.50
7738;DHT22;29398;45.328;5.558;2022-07-05T03:10:11;20.00;97.40
7738;DHT22;29398;45.328;5.558;2022-07-05T03:11:12;20.00;97.40
7738;DHT22;29398;45.328;5.558;2022-07-05T03:12:15;20.00;97.70
7738;DHT22;29398;45.328;5.558;2022-07-05T03:13:19;20.00;97.40
7738;DHT22;29398;45.328;5.558;2022-07-05T03:14:21;20.00;97.50
7738;DHT22;29398;45.328;5.558;2022-07-05T03:15:23;19.90;97.40
7738;DHT22;29398;45.328;5.558;2022-07-05T03:16:26;19.90;97.40
7738;DHT22;29398;45.328;5.558;2022-07-05T03:17:27;19.90;97.40
7738;DHT22;29398;45.328;5.558;2022-07-05T03:18:29;19.90;97.50
7738;DHT22;29398;45.328;5.558;2022-07-05T03:19:31;19.90;97.40
7738;DHT22;29398;45.328;5.558;2022-07-05T03:20:34;19.90;97.50
7738;DHT22;29398;45.328;5.558;2022-07-05T03:21:36;19.90;97.50
7738;DHT22;29398;45.328;5.558;2022-07-05T03:22:38;19.90;97.40
7738;DHT22;29398;45.328;5.558;2022-07-05T03:23:39;19.90;97.50
7738;DHT22;29398;45.328;5.558;2022-07-05T03:24:41;19.90;97.50
7738;DHT22;29398;45.328;5.558;2022-07-05T03:25:43;19.90;97.50
7738;DHT22;29398;45.328;5.558;2022-07-05T03:26:46;19.90;97.50
7738;DHT22;29398;45.328;5.558;2022-07-05T03:27:48;19.90;97.50
7738;DHT22;29398;45.328;5.558;2022-07-05T03:28:51;19.90;97.40
7738;DHT22;29398;45.328;5.558;2022-07-05T03:29:52;19.90;97.40
7738;DHT22;29398;45.328;5.558;2022-07-05T03:30:54;19.80;97.30
7738;DHT22;29398;45.328;5.558;2022-07-05T03:31:58;19.80;97.20
7738;DHT22;29398;45.328;5.558;2022-07-05T03:33:01;19.80;97.30
7738;DHT22;29398;45.328;5.558;2022-07-05T03:34:05;19.80;97.40
7738;DHT22;29398;45.328;5.558;2022-07-05T03:35:07;19.80;97.40
7738;DHT22;29398;45.328;5.558;2022-07-05T03:36:10;19.80;97.30
7738;DHT22;29398;45.328;5.558;2022-07-05T03:37:14;19.70;97.40
7738;DHT22;29398;45.328;5.558;2022-07-05T03:38:15;19.70;97.40
7738;DHT22;29398;45.328;5.558;2022-07-05T03:39:18;19.70;97.40
7738;DHT22;29398;45.328;5.558;2022-07-05T03:40:20;19.70;97.50
7738;DHT22;29398;45.328;5.558;2022-07-05T03:41:24;19.70;97.40
7738;DHT22;29398;45.328;5.558;2022-07-05T03:42:26;19.70;97.50
7738;DHT22;29398;45.328;5.558;2022-07-05T03:43:28;19.70;97.60
7738;DHT22;29398;45.328;5.558;2022-07-05T03:44:31;19.60;97.80
7738;DHT22;29398;45.328;5.558;2022-07-05T03:45:36;19.60;97.90
7738;DHT22;29398;45.328;5.558;2022-07-05T03:46:38;19.60;98.20
7738;DHT22;29398;45.328;5.558;2022-07-05T03:47:40;19.60;98.50
7738;DHT22;29398;45.328;5.558;2022-07-05T03:48:44;19.70;98.40
7738;DHT22;29398;45.328;5.558;2022-07-05T03:49:50;19.60;98.50
7738;DHT22;29398;45.328;5.558;2022-07-05T03:50:51;19.60;98.80
7738;DHT22;29398;45.328;5.558;2022-07-05T03:51:54;19.60;98.70
7738;DHT22;29398;45.328;5.558;2022-07-05T03:52:55;19.60;98.70
7738;DHT22;29398;45.328;5.558;2022-07-05T03:53:57;19.50;98.50
7738;DHT22;29398;45.328;5.558;2022-07-05T03:55:00;19.50;98.40
7738;DHT22;29398;45.328;5.558;2022-07-05T03:56:01;19.50;98.50
7738;DHT22;29398;45.328;5.558;2022-07-05T03:57:04;19.50;98.50
7738;DHT22;29398;45.328;5.558;2022-07-05T03:58:05;19.50;98.50
7738;DHT22;29398;45.328;5.558;2022-07-05T03:59:07;19.50;98.50
7738;DHT22;29398;45.328;5.558;2022-07-05T04:00:12;19.50;98.50
7738;DHT22;29398;45.328;5.558;2022-07-05T04:01:14;19.60;98.40
7738;DHT22;29398;45.328;5.558;2022-07-05T04:02:15;19.60;98.30
7738;DHT22;29398;45.328;5.558;2022-07-05T04:03:17;19.60;98.40
7738;DHT22;29398;45.328;5.558;2022-07-05T04:04:20;19.60;98.40
7738;DHT22;29398;45.328;5.558;2022-07-05T04:05:22;19.60;98.40
7738;DHT22;29398;45.328;5.558;2022-07-05T04:06:24;19.50;98.50
7738;DHT22;29398;45.328;5.558;2022-07-05T04:07:27;19.50;98.50
7738;DHT22;29398;45.328;5.558;2022-07-05T04:08:28;19.50;98.60
7738;DHT22;29398;45.328;5.558;2022-07-05T04:09:30;19.50;98.60
7738;DHT22;29398;45.328;5.558;2022-07-05T04:10:32;19.60;98.50
7738;DHT22;29398;45.328;5.558;2022-07-05T04:11:34;19.60;98.50
7738;DHT22;29398;45.328;5.558;2022-07-05T04:12:35;19.60;98.70
7738;DHT22;29398;45.328;5.558;2022-07-05T04:13:38;19.60;98.60
7738;DHT22;29398;45.328;5.558;2022-07-05T04:14:40;19.50;98.60
7738;DHT22;29398;45.328;5.558;2022-07-05T04:15:44;19.50;98.60
7738;DHT22;29398;45.328;5.558;2022-07-05T04:16:45;19.50;98.70
7738;DHT22;29398;45.328;5.558;2022-07-05T04:17:48;19.40;99.10
7738;DHT22;29398;45.328;5.558;2022-07-05T04:18:50;19.40;98.80
7738;DHT22;29398;45.328;5.558;2022-07-05T04:19:52;19.40;99.20
7738;DHT22;29398;45.328;5.558;2022-07-05T04:20:53;19.40;98.80
7738;DHT22;29398;45.328;5.558;2022-07-05T04:21:55;19.40;99.10
7738;DHT22;29398;45.328;5.558;2022-07-05T04:22:56;19.40;99.00
7738;DHT22;29398;45.328;5.558;2022-07-05T04:24:00;19.40;99.60
7738;DHT22;29398;45.328;5.558;2022-07-05T04:25:01;19.40;99.10
7738;DHT22;29398;45.328;5.558;2022-07-05T04:26:21;19.40;99.10
7738;DHT22;29398;45.328;5.558;2022-07-05T04:27:22;19.40;99.20
7738;DHT22;29398;45.328;5.558;2022-07-05T04:28:24;19.40;99.30
7738;DHT22;29398;45.328;5.558;2022-07-05T04:29:28;19.40;99.50
7738;DHT22;29398;45.328;5.558;2022-07-05T04:30:30;19.40;99.50
7738;DHT22;29398;45.328;5.558;2022-07-05T04:31:34;19.40;99.70
7738;DHT22;29398;45.328;5.558;2022-07-05T04:32:36;19.40;99.70
7738;DHT22;29398;45.328;5.558;2022-07-05T04:33:38;19.40;99.90
7738;DHT22;29398;45.328;5.558;2022-07-05T04:34:41;19.40;99.80
7738;DHT22;29398;45.328;5.558;2022-07-05T04:35:43;19.40;99.80
7738;DHT22;29398;45.328;5.558;2022-07-05T04:36:45;19.40;99.80
7738;DHT22;29398;45.328;5.558;2022-07-05T04:37:48;19.30;99.90
7738;DHT22;29398;45.328;5.558;2022-07-05T04:38:50;19.40;99.90
7738;DHT22;29398;45.328;5.558;2022-07-05T04:39:52;19.40;99.90
7738;DHT22;29398;45.328;5.558;2022-07-05T04:40:53;19.40;99.90
7738;DHT22;29398;45.328;5.558;2022-07-05T04:41:55;19.40;99.90
7738;DHT22;29398;45.328;5.558;2022-07-05T04:42:56;19.40;99.90
7738;DHT22;29398;45.328;5.558;2022-07-05T04:43:58;19.40;99.90
7738;DHT22;29398;45.328;5.558;2022-07-05T04:45:01;19.40;99.80
7738;DHT22;29398;45.328;5.558;2022-07-05T04:46:04;19.40;99.80
7738;DHT22;29398;45.328;5.558;2022-07-05T04:47:09;19.40;99.90
7738;DHT22;29398;45.328;5.558;2022-07-05T04:48:11;19.40;99.90
7738;DHT22;29398;45.328;5.558;2022-07-05T04:49:13;19.40;99.90
7738;DHT22;29398;45.328;5.558;2022-07-05T04:50:16;19.40;99.90
7738;DHT22;29398;45.328;5.558;2022-07-05T04:51:17;19.40;99.90
7738;DHT22;29398;45.328;5.558;2022-07-05T04:52:20;19.40;99.90
7738;DHT22;29398;45.328;5.558;2022-07-05T04:53:21;19.40;99.90
7738;DHT22;29398;45.328;5.558;2022-07-05T04:54:23;19.40;99.90
7738;DHT22;29398;45.328;5.558;2022-07-05T04:55:24;19.50;99.90
7738;DHT22;29398;45.328;5.558;2022-07-05T04:56:26;19.50;99.90
7738;DHT22;29398;45.328;5.558;2022-07-05T04:57:27;19.50;99.90
7738;DHT22;29398;45.328;5.558;2022-07-05T04:58:29;19.50;99.90
7738;DHT22;29398;45.328;5.558;2022-07-05T04:59:30;19.50;99.90
7738;DHT22;29398;45.328;5.558;2022-07-05T05:00:32;19.50;99.90
7738;DHT22;29398;45.328;5.558;2022-07-05T05:01:34;19.60;99.90
7738;DHT22;29398;45.328;5.558;2022-07-05T05:02:37;19.60;99.90
7738;DHT22;29398;45.328;5.558;2022-07-05T05:03:38;19.60;99.90
7738;DHT22;29398;45.328;5.558;2022-07-05T05:04:40;19.60;99.90
7738;DHT22;29398;45.328;5.558;2022-07-05T05:05:42;19.60;99.90
7738;DHT22;29398;45.328;5.558;2022-07-05T05:06:44;19.60;99.90
7738;DHT22;29398;45.328;5.558;2022-07-05T05:07:45;19.70;99.90
7738;DHT22;29398;45.328;5.558;2022-07-05T05:08:47;19.70;99.90
7738;DHT22;29398;45.328;5.558;2022-07-05T05:09:48;19.70;99.90
7738;DHT22;29398;45.328;5.558;2022-07-05T05:10:50;19.70;99.90
7738;DHT22;29398;45.328;5.558;2022-07-05T05:11:51;19.70;99.90
7738;DHT22;29398;45.328;5.558;2022-07-05T05:12:53;19.80;99.90
7738;DHT22;29398;45.328;5.558;2022-07-05T05:13:54;19.80;99.90
7738;DHT22;29398;45.328;5.558;2022-07-05T05:14:56;19.80;99.90
7738;DHT22;29398;45.328;5.558;2022-07-05T05:15:57;19.80;99.90
7738;DHT22;29398;45.328;5.558;2022-07-05T05:16:59;19.80;99.90
7738;DHT22;29398;45.328;5.558;2022-07-05T05:18:02;19.80;99.90
7738;DHT22;29398;45.328;5.558;2022-07-05T05:19:04;19.80;99.90
7738;DHT22;29398;45.328;5.558;2022-07-05T05:20:09;19.90;99.90
7738;DHT22;29398;45.328;5.558;2022-07-05T05:21:12;19.90;99.90
7738;DHT22;29398;45.328;5.558;2022-07-05T05:22:13;19.90;99.90
7738;DHT22;29398;45.328;5.558;2022-07-05T05:23:15;19.90;99.90
7738;DHT22;29398;45.328;5.558;2022-07-05T05:24:16;19.90;99.90
7738;DHT22;29398;45.328;5.558;2022-07-05T05:25:18;20.00;99.90
7738;DHT22;29398;45.328;5.558;2022-07-05T05:26:19;20.00;99.90
7738;DHT22;29398;45.328;5.558;2022-07-05T05:27:21;20.00;99.90
7738;DHT22;29398;45.328;5.558;2022-07-05T05:28:22;20.00;99.90
7738;DHT22;29398;45.328;5.558;2022-07-05T05:29:24;20.10;99.90
7738;DHT22;29398;45.328;5.558;2022-07-05T05:30:25;20.00;99.90
7738;DHT22;29398;45.328;5.558;2022-07-05T05:31:27;20.10;99.90
7738;DHT22;29398;45.328;5.558;2022-07-05T05:32:28;20.10;99.90
7738;DHT22;29398;45.328;5.558;2022-07-05T05:33:32;20.10;99.90
7738;DHT22;29398;45.328;5.558;2022-07-05T05:34:34;20.20;99.90
7738;DHT22;29398;45.328;5.558;2022-07-05T05:35:35;20.20;99.90
7738;DHT22;29398;45.328;5.558;2022-07-05T05:36:37;20.30;99.90
7738;DHT22;29398;45.328;5.558;2022-07-05T05:37:48;20.30;99.90
7738;DHT22;29398;45.328;5.558;2022-07-05T05:38:51;20.40;99.90
7738;DHT22;29398;45.328;5.558;2022-07-05T05:39:53;20.40;99.80
7738;DHT22;29398;45.328;5.558;2022-07-05T05:40:54;20.40;99.90
7738;DHT22;29398;45.328;5.558;2022-07-05T05:41:56;20.50;99.90
7738;DHT22;29398;45.328;5.558;2022-07-05T05:42:57;20.60;99.90
7738;DHT22;29398;45.328;5.558;2022-07-05T05:43:59;20.60;99.60
7738;DHT22;29398;45.328;5.558;2022-07-05T05:45:01;20.60;99.30
7738;DHT22;29398;45.328;5.558;2022-07-05T05:46:03;20.50;99.60
7738;DHT22;29398;45.328;5.558;2022-07-05T05:47:05;20.50;99.80
7738;DHT22;29398;45.328;5.558;2022-07-05T05:48:06;20.50;99.50
7738;DHT22;29398;45.328;5.558;2022-07-05T05:49:10;20.50;99.70
7738;DHT22;29398;45.328;5.558;2022-07-05T05:50:12;20.60;99.80
7738;DHT22;29398;45.328;5.558;2022-07-05T05:51:13;20.70;99.40
7738;DHT22;29398;45.328;5.558;2022-07-05T05:52:15;20.70;98.10
7738;DHT22;29398;45.328;5.558;2022-07-05T05:53:16;20.70;98.60
7738;DHT22;29398;45.328;5.558;2022-07-05T05:54:18;20.70;98.90
7738;DHT22;29398;45.328;5.558;2022-07-05T05:55:20;20.70;99.10
7738;DHT22;29398;45.328;5.558;2022-07-05T05:56:22;20.70;99.00
7738;DHT22;29398;45.328;5.558;2022-07-05T05:57:24;20.80;99.20
7738;DHT22;29398;45.328;5.558;2022-07-05T05:58:26;20.90;99.50
7738;DHT22;29398;45.328;5.558;2022-07-05T05:59:28;21.00;99.30
7738;DHT22;29398;45.328;5.558;2022-07-05T06:00:29;21.10;99.00
7738;DHT22;29398;45.328;5.558;2022-07-05T06:01:31;21.20;98.90
7738;DHT22;29398;45.328;5.558;2022-07-05T06:02:33;21.20;98.50
7738;DHT22;29398;45.328;5.558;2022-07-05T06:03:36;21.30;98.30
7738;DHT22;29398;45.328;5.558;2022-07-05T06:04:38;21.30;98.30
7738;DHT22;29398;45.328;5.558;2022-07-05T06:05:40;21.30;98.60
7738;DHT22;29398;45.328;5.558;2022-07-05T06:06:41;21.40;98.50
7738;DHT22;29398;45.328;5.558;2022-07-05T06:07:48;21.40;98.50
7738;DHT22;29398;45.328;5.558;2022-07-05T06:08:49;21.40;98.10
7738;DHT22;29398;45.328;5.558;2022-07-05T06:09:51;21.40;98.10
7738;DHT22;29398;45.328;5.558;2022-07-05T06:10:52;21.40;98.20
7738;DHT22;29398;45.328;5.558;2022-07-05T06:11:54;21.40;98.30
7738;DHT22;29398;45.328;5.558;2022-07-05T06:12:57;21.40;98.40
7738;DHT22;29398;45.328;5.558;2022-07-05T06:13:59;21.40;98.10
7738;DHT22;29398;45.328;5.558;2022-07-05T06:15:00;21.40;98.10
7738;DHT22;29398;45.328;5.558;2022-07-05T06:16:02;21.40;98.20
7738;DHT22;29398;45.328;5.558;2022-07-05T06:17:05;21.30;98.50
7738;DHT22;29398;45.328;5.558;2022-07-05T06:18:07;21.30;98.60
7738;DHT22;29398;45.328;5.558;2022-07-05T06:19:09;21.30;98.60
7738;DHT22;29398;45.328;5.558;2022-07-05T06:20:14;21.40;98.60
7738;DHT22;29398;45.328;5.558;2022-07-05T06:21:16;21.50;98.70
7738;DHT22;29398;45.328;5.558;2022-07-05T06:22:18;21.50;99.10
7738;DHT22;29398;45.328;5.558;2022-07-05T06:23:19;21.50;99.20
7738;DHT22;29398;45.328;5.558;2022-07-05T06:24:21;21.50;98.60
7738;DHT22;29398;45.328;5.558;2022-07-05T06:25:22;21.50;98.30
7738;DHT22;29398;45.328;5.558;2022-07-05T06:26:24;21.60;98.50
7738;DHT22;29398;45.328;5.558;2022-07-05T06:27:25;21.60;98.70
7738;DHT22;29398;45.328;5.558;2022-07-05T06:28:27;21.60;98.80
7738;DHT22;29398;45.328;5.558;2022-07-05T06:29:29;21.60;98.40
7738;DHT22;29398;45.328;5.558;2022-07-05T06:30:32;21.70;97.70
7738;DHT22;29398;45.328;5.558;2022-07-05T06:31:34;21.70;97.50
7738;DHT22;29398;45.328;5.558;2022-07-05T06:32:35;21.70;97.00
7738;DHT22;29398;45.328;5.558;2022-07-05T06:33:38;21.70;96.80
7738;DHT22;29398;45.328;5.558;2022-07-05T06:34:40;21.70;97.30
7738;DHT22;29398;45.328;5.558;2022-07-05T06:35:42;21.70;97.30
7738;DHT22;29398;45.328;5.558;2022-07-05T06:36:44;21.70;97.10
7738;DHT22;29398;45.328;5.558;2022-07-05T06:37:48;21.80;97.20
7738;DHT22;29398;45.328;5.558;2022-07-05T06:38:52;21.80;97.50
7738;DHT22;29398;45.328;5.558;2022-07-05T06:39:54;21.80;97.40
7738;DHT22;29398;45.328;5.558;2022-07-05T06:40:55;21.90;97.20